Time;durP1;ratioP1;P1;durP2;ratioP2;P2;SDS_P1;SDS_P2;PMS_P1;PMS_P2;Temp;Humidity;BMP_temperature;BMP_pressure;BME280_temperature;BME280_humidity;BME280_pressure;Samples;Min_cycle;Max_cycle;Signal;HPM_P1;HPM_P2
2021/12/25 00:01:15;;;;;;;5.43;1.17;;;0.90;99.90;;;;;;5058109;28;20094;-75
2021/12/25 00:03:40;;;;;;;7.30;2.63;;;0.90;99.90;;;;;;5041472;28;20036;-75
2021/12/25 00:06:06;;;;;;;6.40;1.40;;;0.80;99.90;;;;;;5058240;28;20123;-75
2021/12/25 00:08:32;;;;;;;6.18;1.30;;;0.80;99.90;;;;;;5057936;28;20041;-75
2021/12/25 00:11:01;;;;;;;5.30;1.10;;;0.80;99.90;;;;;;5057960;28;20394;-75
2021/12/25 00:13:26;;;;;;;7.30;1.20;;;0.70;99.90;;;;;;5057811;28;20036;-75
2021/12/25 00:15:52;;;;;;;7.88;1.85;;;0.70;99.90;;;;;;5041226;28;20040;-75
2021/12/25 00:18:18;;;;;;;5.50;1.55;;;0.70;99.90;;;;;;5057828;28;20051;-75
2021/12/25 00:20:45;;;;;;;5.40;1.25;;;0.70;99.90;;;;;;5057624;28;20051;-75
2021/12/25 00:23:11;;;;;;;4.55;1.38;;;0.60;99.90;;;;;;5041161;28;20098;-75
2021/12/25 00:25:49;;;;;;;6.13;1.13;;;0.60;99.90;;;;;;5041028;28;20385;-75
2021/12/25 00:31:04;;;;;;;4.85;1.08;;;0.60;99.90;;;;;;5057548;28;20041;-74
2021/12/25 00:33:47;;;;;;;9.23;1.20;;;0.60;99.90;;;;;;5040859;28;20032;-75
2021/12/25 00:36:15;;;;;;;5.20;1.15;;;0.60;99.90;;;;;;5041222;28;20044;-75
2021/12/25 00:38:44;;;;;;;6.57;1.20;;;0.60;99.90;;;;;;5040985;28;20036;-75
2021/12/25 00:41:11;;;;;;;6.43;0.85;;;0.60;99.90;;;;;;5057456;28;20487;-75
2021/12/25 00:43:36;;;;;;;5.80;1.08;;;0.50;99.90;;;;;;5057446;28;20078;-75
2021/12/25 00:46:02;;;;;;;5.47;1.00;;;0.50;99.80;;;;;;5057326;28;20072;-75
2021/12/25 00:48:28;;;;;;;4.38;1.08;;;0.40;99.90;;;;;;5040554;28;20071;-75
2021/12/25 00:50:54;;;;;;;3.38;0.95;;;0.40;99.20;;;;;;5057128;28;20082;-75
2021/12/25 00:53:20;;;;;;;4.88;1.00;;;0.30;99.20;;;;;;5057350;28;20465;-74
2021/12/25 00:55:46;;;;;;;5.03;1.40;;;0.30;98.80;;;;;;5040576;28;20535;-75
2021/12/25 00:58:12;;;;;;;5.63;0.88;;;0.30;98.40;;;;;;5040658;28;20427;-75
2021/12/25 01:00:38;;;;;;;3.55;0.82;;;0.20;97.80;;;;;;5057166;28;20436;-75
2021/12/25 01:03:05;;;;;;;4.13;0.93;;;0.20;97.70;;;;;;5056835;28;20083;-75
2021/12/25 01:05:31;;;;;;;2.13;0.63;;;0.20;97.60;;;;;;5040236;28;20082;-75
2021/12/25 01:07:56;;;;;;;5.88;0.80;;;0.10;97.70;;;;;;5056865;28;20401;-75
2021/12/25 01:10:22;;;;;;;4.07;0.90;;;0.20;97.40;;;;;;5040475;28;20102;-75
2021/12/25 01:15:19;;;;;;;5.05;1.02;;;0.10;97.00;;;;;;5057035;28;20056;-75
2021/12/25 01:29:13;;;;;;;5.00;0.90;;;0.00;96.40;;;;;;5056409;28;20492;-75
2021/12/25 01:31:41;;;;;;;3.97;0.90;;;-0.10;96.40;;;;;;5056573;28;20074;-74
2021/12/25 01:34:33;;;;;;;4.18;0.85;;;-0.10;96.50;;;;;;5039853;28;20044;-75
2021/12/25 01:39:29;;;;;;;6.82;1.10;;;-0.20;97.00;;;;;;5056231;28;20127;-75
2021/12/25 01:50:08;;;;;;;5.20;1.00;;;-0.30;98.20;;;;;;5056317;28;20041;-75
2021/12/25 01:52:34;;;;;;;5.30;1.00;;;-0.30;98.20;;;;;;5055853;28;20048;-75
2021/12/25 01:55:09;;;;;;;2.80;0.98;;;-0.30;98.40;;;;;;5055919;28;20045;-75
2021/12/25 01:57:35;;;;;;;4.45;1.10;;;-0.30;98.30;;;;;;5039069;28;20040;-75
2021/12/25 02:00:08;;;;;;;5.75;1.08;;;-0.30;98.30;;;;;;5039265;28;20086;-75
2021/12/25 02:02:34;;;;;;;6.18;0.95;;;-0.40;98.10;;;;;;5055400;28;20048;-75
2021/12/25 02:04:59;;;;;;;2.65;0.90;;;-0.40;98.40;;;;;;5039190;28;20036;-75
2021/12/25 02:07:25;;;;;;;5.35;1.27;;;-0.40;97.40;;;;;;5056018;28;20038;-75
2021/12/25 02:09:51;;;;;;;11.75;1.88;;;-0.40;97.60;;;;;;5055978;28;20036;-75
2021/12/25 02:12:17;;;;;;;6.30;1.30;;;-0.50;97.50;;;;;;5055663;28;20507;-74
2021/12/25 02:14:45;;;;;;;2.47;0.70;;;-0.50;97.40;;;;;;5055910;28;20040;-74
2021/12/25 02:17:27;;;;;;;4.20;1.33;;;-0.60;97.20;;;;;;5038937;28;20534;-75
2021/12/25 02:20:11;;;;;;;2.80;0.90;;;-0.60;96.70;;;;;;5038941;28;20036;-75
2021/12/25 02:22:37;;;;;;;4.75;0.90;;;-0.60;97.20;;;;;;5038521;28;20123;-75
2021/12/25 02:25:03;;;;;;;2.88;0.70;;;-0.70;97.00;;;;;;5055432;28;20127;-75
2021/12/25 02:27:29;;;;;;;3.00;0.70;;;-0.70;96.90;;;;;;5055413;28;20032;-75
2021/12/25 02:29:55;;;;;;;4.05;1.00;;;-0.80;96.60;;;;;;5055401;28;20078;-75
2021/12/25 02:32:21;;;;;;;5.85;0.90;;;-0.80;96.30;;;;;;5038569;28;20036;-75
2021/12/25 02:34:46;;;;;;;2.80;0.70;;;-0.80;96.80;;;;;;5055522;28;20045;-75
2021/12/25 02:37:12;;;;;;;5.80;1.00;;;-0.80;96.60;;;;;;5055325;28;20497;-75
2021/12/25 02:39:38;;;;;;;3.90;0.63;;;-0.80;96.60;;;;;;5055482;28;20471;-75
2021/12/25 02:42:04;;;;;;;3.78;0.90;;;-0.90;96.30;;;;;;5055170;28;20040;-75
2021/12/25 02:44:31;;;;;;;5.32;1.40;;;-0.90;96.50;;;;;;5038856;28;20033;-75
2021/12/25 02:46:59;;;;;;;4.75;0.80;;;-0.90;96.20;;;;;;5055154;28;20086;-74
2021/12/25 02:49:24;;;;;;;6.55;0.90;;;-0.90;96.40;;;;;;5055358;28;20044;-75
2021/12/25 02:51:52;;;;;;;3.63;1.02;;;-1.00;95.90;;;;;;5055015;28;20547;-75
2021/12/25 02:54:18;;;;;;;4.97;1.00;;;-1.00;96.20;;;;;;5038445;28;20055;-75
2021/12/25 02:56:43;;;;;;;2.35;0.90;;;-1.00;96.00;;;;;;5055069;28;20131;-75
2021/12/25 02:59:12;;;;;;;4.28;0.73;;;-1.00;96.20;;;;;;5055002;28;20041;-74
2021/12/25 03:01:38;;;;;;;1.67;0.80;;;-1.10;95.90;;;;;;5054823;28;20119;-74
2021/12/25 03:04:05;;;;;;;2.15;0.70;;;-1.10;96.10;;;;;;5054982;28;20128;-74
2021/12/25 03:06:35;;;;;;;3.47;0.68;;;-1.10;95.50;;;;;;5055281;28;20050;-74
2021/12/25 03:09:01;;;;;;;4.10;1.25;;;-1.10;95.40;;;;;;5056723;28;20028;-75
2021/12/25 03:11:26;;;;;;;3.22;0.75;;;-1.20;95.60;;;;;;5042522;28;20040;-75
2021/12/25 03:14:10;;;;;;;5.80;1.00;;;-1.20;95.40;;;;;;5042624;28;20041;-74
2021/12/25 03:16:36;;;;;;;4.68;0.80;;;-1.20;95.10;;;;;;5059020;28;20041;-74
2021/12/25 03:19:04;;;;;;;3.58;0.75;;;-1.20;95.40;;;;;;5042275;28;20066;-75
2021/12/25 03:21:30;;;;;;;2.80;0.88;;;-1.20;95.00;;;;;;5042362;28;20037;-75
2021/12/25 03:23:55;;;;;;;2.65;0.80;;;-1.30;94.40;;;;;;5058769;28;20044;-75
2021/12/25 03:26:22;;;;;;;1.48;0.50;;;-1.30;94.40;;;;;;5042194;28;20036;-75
2021/12/25 03:28:51;;;;;;;4.32;0.60;;;-1.30;94.30;;;;;;5042025;28;20037;-75
2021/12/25 03:31:18;;;;;;;4.93;0.70;;;-1.40;93.60;;;;;;5058897;28;20048;-75
2021/12/25 03:33:52;;;;;;;4.82;0.75;;;-1.40;93.40;;;;;;5059307;28;20509;-74
2021/12/25 03:36:18;;;;;;;2.30;0.65;;;-1.50;93.50;;;;;;5058572;28;20519;-75
2021/12/25 03:38:45;;;;;;;1.90;0.70;;;-1.50;93.10;;;;;;5058495;28;20455;-75
2021/12/25 03:41:11;;;;;;;1.58;0.70;;;-1.50;93.20;;;;;;5058420;28;20091;-74
2021/12/25 03:43:39;;;;;;;2.67;0.80;;;-1.60;93.20;;;;;;5058398;28;20083;-75
2021/12/25 03:46:10;;;;;;;2.15;0.70;;;-1.60;93.00;;;;;;5058344;28;20044;-75
2021/12/25 03:59:07;;;;;;;4.13;0.80;;;-1.70;93.10;;;;;;5058141;28;20127;-75
2021/12/25 04:06:34;;;;;;;4.47;0.75;;;-1.80;92.30;;;;;;5058252;28;20241;-75
2021/12/25 04:09:03;;;;;;;2.45;0.55;;;-1.80;92.70;;;;;;5057984;28;20456;-75
2021/12/25 04:11:32;;;;;;;4.22;0.80;;;-1.90;92.80;;;;;;5057841;28;20048;-74
2021/12/25 04:13:58;;;;;;;1.80;0.60;;;-1.90;92.70;;;;;;5057942;28;20037;-74
2021/12/25 04:16:28;;;;;;;3.25;0.63;;;-1.90;92.80;;;;;;5058099;28;20040;-75
2021/12/25 04:18:54;;;;;;;2.58;0.60;;;-1.90;92.70;;;;;;5058084;28;20041;-74
2021/12/25 04:21:22;;;;;;;3.35;0.73;;;-1.90;92.70;;;;;;5057288;28;20408;-74
2021/12/25 04:23:48;;;;;;;3.38;0.70;;;-2.00;92.50;;;;;;5057450;28;20481;-74
2021/12/25 04:26:14;;;;;;;4.18;0.60;;;-2.00;92.60;;;;;;5041020;28;20086;-75
2021/12/25 04:32:01;;;;;;;2.28;0.68;;;-2.00;92.60;;;;;;4987693;28;20046;-75
2021/12/25 05:01:50;;;;;;;2.17;0.70;;;-2.20;93.10;;;;;;5056934;28;20084;-75
2021/12/25 05:04:22;;;;;;;2.58;0.50;;;-2.20;93.00;;;;;;5056980;28;20040;-75
2021/12/25 05:06:48;;;;;;;3.65;0.52;;;-2.30;93.50;;;;;;5040401;28;20037;-75
2021/12/25 05:09:15;;;;;;;2.42;0.68;;;-2.30;93.10;;;;;;5056858;28;20051;-75
2021/12/25 05:11:40;;;;;;;2.60;0.50;;;-2.30;93.00;;;;;;5057005;28;20040;-75
2021/12/25 05:14:06;;;;;;;2.72;0.80;;;-2.30;93.20;;;;;;5056764;28;20067;-75
2021/12/25 05:16:32;;;;;;;2.30;0.60;;;-2.30;93.40;;;;;;5056789;28;20068;-75
2021/12/25 05:18:57;;;;;;;2.47;0.60;;;-2.30;93.50;;;;;;5040090;28;20036;-75
2021/12/25 05:21:23;;;;;;;1.73;0.50;;;-2.30;93.40;;;;;;5056614;28;20041;-75
2021/12/25 05:23:48;;;;;;;0.50;0.40;;;-2.30;93.60;;;;;;5056530;28;20028;-75
2021/12/25 05:26:15;;;;;;;3.88;0.68;;;-2.30;93.50;;;;;;5056640;28;20041;-75
2021/12/25 05:28:43;;;;;;;4.05;0.80;;;-2.30;93.70;;;;;;5057017;28;20060;-75
2021/12/25 05:31:11;;;;;;;3.55;0.70;;;-2.30;93.80;;;;;;5055827;28;20041;-75
2021/12/25 05:33:37;;;;;;;2.50;0.60;;;-2.40;93.90;;;;;;5056120;28;20386;-75
2021/12/25 05:36:04;;;;;;;2.90;0.60;;;-2.40;94.10;;;;;;5039966;28;20047;-75
2021/12/25 05:38:31;;;;;;;3.10;0.75;;;-2.40;93.90;;;;;;5056563;28;20488;-75
2021/12/25 05:40:56;;;;;;;1.10;0.50;;;-2.40;93.90;;;;;;5056165;28;20037;-75
2021/12/25 05:43:22;;;;;;;4.63;0.85;;;-2.40;94.00;;;;;;5056152;28;20039;-74
2021/12/25 05:45:48;;;;;;;2.25;0.50;;;-2.40;94.10;;;;;;5056148;28;20032;-74
2021/12/25 05:48:14;;;;;;;2.72;0.60;;;-2.40;94.10;;;;;;5056140;28;20047;-75
2021/12/25 05:50:40;;;;;;;3.05;0.70;;;-2.50;94.20;;;;;;5056071;28;20038;-75
2021/12/25 05:53:06;;;;;;;3.55;0.95;;;-2.50;94.00;;;;;;5055913;28;20044;-74
2021/12/25 05:55:32;;;;;;;2.67;1.02;;;-2.50;93.90;;;;;;5056027;28;20044;-74
2021/12/25 05:57:59;;;;;;;1.45;0.50;;;-2.60;94.20;;;;;;5055970;28;20048;-74
2021/12/25 06:00:25;;;;;;;5.25;1.20;;;-2.60;94.00;;;;;;5039131;28;20040;-74
2021/12/25 06:02:51;;;;;;;5.03;0.68;;;-2.60;94.10;;;;;;5055671;28;20093;-75
2021/12/25 06:05:18;;;;;;;2.28;0.52;;;-2.60;94.20;;;;;;5055694;28;20393;-75
2021/12/25 06:07:43;;;;;;;4.22;1.10;;;-2.60;93.90;;;;;;5055687;28;20426;-75
2021/12/25 06:10:10;;;;;;;1.48;0.45;;;-2.60;93.90;;;;;;5039376;28;20093;-75
2021/12/25 06:12:41;;;;;;;1.73;0.65;;;-2.60;93.70;;;;;;5039204;28;20075;-74
2021/12/25 06:15:09;;;;;;;1.90;0.40;;;-2.60;93.50;;;;;;5039299;28;20059;-75
2021/12/25 06:17:35;;;;;;;4.57;0.60;;;-2.60;93.30;;;;;;5055592;28;20106;-75
2021/12/25 06:20:01;;;;;;;2.35;0.60;;;-2.60;93.40;;;;;;5055675;28;20079;-75
2021/12/25 06:22:27;;;;;;;3.60;0.75;;;-2.60;93.10;;;;;;5038704;28;20481;-74
2021/12/25 06:24:52;;;;;;;2.30;0.30;;;-2.60;93.00;;;;;;5055529;28;20043;-75
2021/12/25 06:27:20;;;;;;;3.35;0.50;;;-2.70;92.80;;;;;;5056546;28;20048;-75
2021/12/25 06:29:46;;;;;;;1.98;0.57;;;-2.60;92.70;;;;;;5038749;28;20048;-74
2021/12/25 06:32:12;;;;;;;1.27;0.40;;;-2.60;92.90;;;;;;5055200;28;20036;-75
2021/12/25 06:34:38;;;;;;;1.88;0.50;;;-2.70;93.00;;;;;;5055908;28;20036;-75
2021/12/25 06:37:04;;;;;;;2.80;0.40;;;-2.60;92.90;;;;;;5055297;28;20044;-75
2021/12/25 06:39:31;;;;;;;1.15;0.43;;;-2.70;93.00;;;;;;5055302;28;20047;-74
2021/12/25 06:41:57;;;;;;;1.48;0.50;;;-2.70;93.00;;;;;;5055129;28;20040;-74
2021/12/25 06:44:24;;;;;;;2.25;0.50;;;-2.70;93.10;;;;;;5055242;28;20094;-75
2021/12/25 06:46:54;;;;;;;2.28;0.50;;;-2.70;93.00;;;;;;5055232;28;20040;-74
2021/12/25 06:49:21;;;;;;;1.95;0.50;;;-2.70;93.10;;;;;;5055177;28;20086;-74
2021/12/25 06:51:48;;;;;;;2.45;0.30;;;-2.80;92.90;;;;;;5055318;28;20072;-74
2021/12/25 06:54:13;;;;;;;2.00;0.60;;;-2.70;93.00;;;;;;5055362;28;20052;-75
2021/12/25 06:56:39;;;;;;;3.22;0.85;;;-2.80;92.70;;;;;;5055124;28;20049;-75
2021/12/25 06:59:05;;;;;;;2.33;0.38;;;-2.80;92.80;;;;;;5055071;28;20032;-75
2021/12/25 07:01:31;;;;;;;1.40;0.47;;;-2.80;92.30;;;;;;5054935;28;20523;-74
2021/12/25 07:03:56;;;;;;;1.58;0.32;;;-2.80;92.30;;;;;;5055251;28;20037;-74
2021/12/25 07:06:22;;;;;;;2.70;0.43;;;-2.80;91.80;;;;;;5038696;28;20408;-74
2021/12/25 07:08:48;;;;;;;2.25;0.60;;;-2.90;91.90;;;;;;5038389;28;20037;-74
2021/12/25 07:11:15;;;;;;;0.85;0.50;;;-2.90;91.80;;;;;;5054971;28;20123;-75
2021/12/25 07:13:44;;;;;;;2.65;0.50;;;-2.90;92.20;;;;;;5054868;28;20033;-75
2021/12/25 07:16:09;;;;;;;1.20;0.40;;;-2.80;92.10;;;;;;5054898;28;20505;-74
2021/12/25 07:18:35;;;;;;;1.27;0.52;;;-2.90;92.20;;;;;;5054870;28;20071;-75
2021/12/25 07:21:02;;;;;;;2.05;0.50;;;-2.90;92.30;;;;;;5054757;28;20076;-75
2021/12/25 07:23:27;;;;;;;1.88;0.47;;;-2.90;92.10;;;;;;5054585;28;20032;-74
2021/12/25 07:25:53;;;;;;;3.80;0.45;;;-2.90;92.10;;;;;;5055619;28;20047;-73
2021/12/25 07:28:18;;;;;;;2.08;0.40;;;-2.90;92.20;;;;;;5055192;28;20072;-73
2021/12/25 07:30:44;;;;;;;1.23;0.47;;;-3.00;91.80;;;;;;5056383;28;20040;-73
2021/12/25 07:33:10;;;;;;;1.08;0.40;;;-3.00;92.10;;;;;;5038624;28;20493;-73
2021/12/25 07:35:36;;;;;;;1.98;0.60;;;-3.00;91.90;;;;;;5055026;28;20044;-73
2021/12/25 07:38:01;;;;;;;2.28;0.38;;;-3.00;91.70;;;;;;5055271;28;20051;-73
2021/12/25 07:40:27;;;;;;;1.38;0.40;;;-3.00;91.80;;;;;;5038703;28;20420;-73
2021/12/25 07:42:54;;;;;;;1.70;0.40;;;-3.00;91.80;;;;;;5054901;28;20123;-73
2021/12/25 07:45:20;;;;;;;3.58;0.43;;;-3.10;91.50;;;;;;5055117;28;20111;-73
2021/12/25 07:47:50;;;;;;;1.67;0.40;;;-3.00;91.90;;;;;;5038573;28;20508;-73
2021/12/25 07:50:16;;;;;;;1.13;0.30;;;-3.10;91.30;;;;;;5055190;28;20075;-73
2021/12/25 07:52:42;;;;;;;1.50;0.60;;;-3.10;91.50;;;;;;5038119;28;20121;-71
2021/12/25 07:55:09;;;;;;;2.17;0.70;;;-3.10;91.80;;;;;;5056168;28;20133;-73
2021/12/25 07:57:34;;;;;;;1.77;0.45;;;-3.10;91.80;;;;;;5059069;28;20082;-73
2021/12/25 08:00:00;;;;;;;2.45;0.50;;;-3.10;91.60;;;;;;5058792;28;20455;-73
2021/12/25 08:02:25;;;;;;;2.35;0.50;;;-3.10;91.80;;;;;;5058535;28;20043;-73
2021/12/25 08:04:51;;;;;;;1.80;0.40;;;-3.10;91.60;;;;;;5058686;28;20413;-73
2021/12/25 08:07:17;;;;;;;1.33;0.40;;;-3.10;91.70;;;;;;5041724;28;20059;-73
2021/12/25 08:09:43;;;;;;;3.47;0.60;;;-3.10;91.70;;;;;;5058437;28;20032;-73
2021/12/25 08:12:10;;;;;;;4.50;1.00;;;-3.10;91.70;;;;;;5058254;28;20050;-73
2021/12/25 08:14:36;;;;;;;5.72;0.70;;;-3.10;91.90;;;;;;5058327;28;20048;-73
2021/12/25 08:17:05;;;;;;;3.25;0.88;;;-3.10;91.90;;;;;;5058047;28;20047;-73
2021/12/25 08:19:31;;;;;;;3.20;0.63;;;-3.10;91.80;;;;;;5058662;28;20141;-73
2021/12/25 08:21:56;;;;;;;3.35;0.75;;;-3.10;92.00;;;;;;5058163;28;20518;-73
2021/12/25 08:24:22;;;;;;;4.18;0.70;;;-3.10;91.80;;;;;;5041550;28;20028;-73
2021/12/25 08:26:49;;;;;;;4.38;0.80;;;-3.10;91.90;;;;;;5058167;28;20054;-73
2021/12/25 08:29:15;;;;;;;3.35;0.85;;;-3.10;92.00;;;;;;5057990;28;20041;-73
2021/12/25 08:31:41;;;;;;;10.23;1.00;;;-3.10;91.80;;;;;;5058200;28;20040;-74
2021/12/25 08:34:07;;;;;;;2.80;0.80;;;-3.10;92.00;;;;;;5058145;28;20047;-73
2021/12/25 08:36:33;;;;;;;5.55;0.75;;;-3.00;92.00;;;;;;5058204;28;20129;-73
2021/12/25 08:38:59;;;;;;;2.05;0.50;;;-3.00;92.10;;;;;;5058524;28;20178;-74
2021/12/25 08:41:29;;;;;;;2.38;0.57;;;-3.00;92.20;;;;;;5058051;28;20127;-71
2021/12/25 08:43:59;;;;;;;4.95;0.65;;;-3.00;92.10;;;;;;5060167;28;20033;-75
2021/12/25 08:46:43;;;;;;;3.28;0.40;;;-3.00;92.00;;;;;;5042903;28;20056;-74
2021/12/25 08:49:15;;;;;;;3.70;0.60;;;-3.00;92.10;;;;;;5042859;28;20123;-74
2021/12/25 08:51:43;;;;;;;1.83;0.65;;;-2.90;92.10;;;;;;5042042;28;20546;-74
2021/12/25 08:54:09;;;;;;;1.50;0.50;;;-2.90;92.20;;;;;;5059243;28;20040;-74
2021/12/25 08:56:35;;;;;;;1.30;0.40;;;-2.90;92.20;;;;;;5059249;28;20136;-74
2021/12/25 08:59:01;;;;;;;2.00;0.45;;;-2.80;92.20;;;;;;5059030;28;20068;-74
2021/12/25 09:01:26;;;;;;;1.60;0.50;;;-2.80;91.80;;;;;;5042687;28;20045;-74
2021/12/25 09:03:55;;;;;;;2.80;0.60;;;-2.80;91.80;;;;;;5058995;28;20473;-74
2021/12/25 09:06:20;;;;;;;2.38;0.52;;;-2.80;92.00;;;;;;5059248;28;20037;-74
2021/12/25 09:08:46;;;;;;;2.03;0.57;;;-2.70;92.00;;;;;;5058188;28;20044;-73
2021/12/25 09:11:12;;;;;;;5.65;0.65;;;-2.70;91.80;;;;;;5057012;28;20037;-73
2021/12/25 09:13:38;;;;;;;2.80;0.60;;;-2.70;91.60;;;;;;5057210;28;20045;-72
2021/12/25 09:16:03;;;;;;;4.68;0.70;;;-2.70;91.80;;;;;;5058020;28;20036;-75
2021/12/25 09:18:29;;;;;;;2.42;0.50;;;-2.70;91.70;;;;;;5057956;28;20094;-75
2021/12/25 09:20:55;;;;;;;4.22;0.68;;;-2.60;91.80;;;;;;5057866;28;20120;-73
2021/12/25 09:23:21;;;;;;;2.20;0.60;;;-2.60;91.60;;;;;;5056881;28;20076;-73
2021/12/25 09:25:46;;;;;;;3.90;0.70;;;-2.60;91.40;;;;;;5057041;28;20119;-77
2021/12/25 09:28:13;;;;;;;3.05;0.52;;;-2.50;91.70;;;;;;5040345;28;20105;-73
2021/12/25 09:30:38;;;;;;;2.20;0.60;;;-2.40;91.70;;;;;;5056865;28;20044;-74
2021/12/25 09:33:04;;;;;;;1.77;0.52;;;-2.40;91.80;;;;;;5057548;28;20036;-74
2021/12/25 09:35:30;;;;;;;4.97;0.50;;;-2.40;91.40;;;;;;5041175;28;20032;-73
2021/12/25 09:37:56;;;;;;;2.90;0.50;;;-2.40;91.20;;;;;;5040860;28;20480;-74
2021/12/25 09:40:21;;;;;;;2.05;0.68;;;-2.30;91.10;;;;;;5057698;28;20058;-75
2021/12/25 09:42:47;;;;;;;3.88;0.60;;;-2.30;91.10;;;;;;5057008;28;20504;-74
2021/12/25 09:45:13;;;;;;;2.47;0.63;;;-2.30;90.80;;;;;;5057156;28;20033;-74
2021/12/25 09:47:39;;;;;;;4.88;0.70;;;-2.20;90.80;;;;;;5057840;28;20040;-74
2021/12/25 09:50:06;;;;;;;4.10;0.55;;;-2.20;90.70;;;;;;5041937;28;20515;-74
2021/12/25 09:52:31;;;;;;;2.97;0.60;;;-2.10;90.80;;;;;;5058697;28;20422;-75
2021/12/25 09:54:57;;;;;;;3.08;0.60;;;-2.10;91.00;;;;;;5058607;28;20036;-74
2021/12/25 09:57:23;;;;;;;3.47;0.70;;;-2.00;90.80;;;;;;5059092;28;20035;-74
2021/12/25 09:59:51;;;;;;;4.03;0.52;;;-2.00;90.40;;;;;;5060442;28;20033;-74
2021/12/25 10:02:16;;;;;;;2.92;0.60;;;-2.00;90.30;;;;;;5042097;28;20039;-74
2021/12/25 10:04:49;;;;;;;4.95;0.40;;;-1.90;90.50;;;;;;5043031;28;20465;-75
2021/12/25 10:07:29;;;;;;;3.13;0.68;;;-1.90;90.50;;;;;;5058598;28;20068;-75
2021/12/25 10:09:59;;;;;;;4.22;0.50;;;-1.90;89.90;;;;;;5043012;28;20047;-74
2021/12/25 10:12:43;;;;;;;2.95;0.47;;;-1.80;90.10;;;;;;5059370;28;20469;-74
2021/12/25 10:15:12;;;;;;;3.97;0.80;;;-1.80;90.00;;;;;;5042870;28;20104;-74
2021/12/25 10:17:48;;;;;;;1.13;0.43;;;-1.70;90.20;;;;;;5041655;28;20083;-73
2021/12/25 10:20:15;;;;;;;1.20;0.40;;;-1.70;90.20;;;;;;5041987;28;20060;-74
2021/12/25 10:22:59;;;;;;;1.75;0.45;;;-1.60;89.60;;;;;;5041430;28;20037;-74
2021/12/25 10:25:32;;;;;;;2.88;0.70;;;-1.60;88.90;;;;;;5057571;28;20036;-74
2021/12/25 10:28:00;;;;;;;2.83;0.57;;;-1.60;89.70;;;;;;5056651;28;20036;-72
2021/12/25 10:30:26;;;;;;;2.67;0.55;;;-1.50;90.00;;;;;;5057111;28;20082;-73
2021/12/25 10:32:52;;;;;;;4.15;0.60;;;-1.50;89.60;;;;;;5056520;28;20049;-73
2021/12/25 10:35:22;;;;;;;3.20;0.70;;;-1.40;90.00;;;;;;5057637;28;20040;-73
2021/12/25 10:37:48;;;;;;;2.60;0.45;;;-1.40;89.30;;;;;;5040346;28;20045;-72
2021/12/25 10:40:32;;;;;;;2.95;0.70;;;-1.30;88.60;;;;;;5056996;28;20496;-72
2021/12/25 10:43:03;;;;;;;3.80;0.55;;;-1.30;87.00;;;;;;5039613;28;20443;-72
2021/12/25 10:45:31;;;;;;;2.63;0.70;;;-1.30;87.20;;;;;;5056528;28;20476;-73
2021/12/25 10:48:07;;;;;;;1.88;0.50;;;-1.20;87.50;;;;;;5039456;28;20074;-72
2021/12/25 10:50:36;;;;;;;2.85;0.50;;;-1.20;85.20;;;;;;5056255;28;20037;-72
2021/12/25 10:53:10;;;;;;;2.95;0.65;;;-1.20;86.00;;;;;;5055669;28;20048;-71
2021/12/25 10:55:37;;;;;;;4.55;0.70;;;-1.10;85.90;;;;;;5039431;28;20147;-72
2021/12/25 10:58:16;;;;;;;2.20;0.90;;;-1.10;86.20;;;;;;5056127;28;20412;-72
2021/12/25 11:00:41;;;;;;;2.03;0.70;;;-1.00;85.90;;;;;;5056264;28;20028;-72
2021/12/25 11:03:09;;;;;;;3.03;0.70;;;-1.00;85.20;;;;;;5038683;28;20385;-72
2021/12/25 11:05:46;;;;;;;2.53;0.80;;;-1.00;84.50;;;;;;5055509;28;20033;-72
2021/12/25 11:08:12;;;;;;;2.72;0.85;;;-0.80;84.60;;;;;;5055430;28;20086;-73
2021/12/25 11:10:45;;;;;;;1.85;0.52;;;-0.80;84.40;;;;;;5055452;28;20048;-73
2021/12/25 11:13:22;;;;;;;2.85;0.52;;;-0.70;83.90;;;;;;5038730;28;20040;-74
2021/12/25 11:15:52;;;;;;;4.07;0.60;;;-0.70;84.00;;;;;;5038759;28;20044;-74
2021/12/25 11:18:19;;;;;;;4.00;0.90;;;-0.60;83.90;;;;;;5055323;28;20045;-73
2021/12/25 11:20:46;;;;;;;1.80;0.57;;;-0.40;83.90;;;;;;5055192;28;20049;-72
2021/12/25 11:23:13;;;;;;;2.42;0.80;;;-0.20;82.60;;;;;;5054877;28;20041;-73
2021/12/25 11:25:40;;;;;;;3.05;0.82;;;0.60;80.40;;;;;;5055014;28;20041;-73
2021/12/25 11:28:09;;;;;;;2.33;0.75;;;1.70;79.90;;;;;;5055184;28;20397;-73
2021/12/25 11:30:42;;;;;;;2.03;0.70;;;2.80;74.90;;;;;;5040626;28;20060;-73
2021/12/25 11:33:09;;;;;;;3.28;0.90;;;3.80;71.50;;;;;;5059294;28;20420;-73
2021/12/25 11:35:35;;;;;;;2.63;0.80;;;4.60;70.00;;;;;;5059219;28;20500;-73
2021/12/25 11:38:03;;;;;;;3.38;0.85;;;4.90;67.80;;;;;;5042397;28;20040;-73
2021/12/25 11:40:33;;;;;;;3.97;1.05;;;5.40;66.10;;;;;;5058771;28;20051;-73
2021/12/25 11:43:02;;;;;;;4.15;1.20;;;6.20;64.50;;;;;;5058728;28;20045;-73
2021/12/25 11:45:33;;;;;;;5.20;0.95;;;6.30;63.30;;;;;;5058648;28;20416;-73
2021/12/25 11:48:10;;;;;;;3.25;0.82;;;6.20;62.10;;;;;;5059246;28;20166;-72
2021/12/25 11:50:40;;;;;;;3.85;0.80;;;6.00;62.90;;;;;;5058727;28;20041;-72
2021/12/25 11:53:25;;;;;;;2.78;0.73;;;5.80;62.00;;;;;;5058579;28;20566;-72
2021/12/25 11:58:51;;;;;;;4.43;0.80;;;5.90;60.40;;;;;;5058760;28;20488;-72
2021/12/25 12:01:38;;;;;;;4.45;1.00;;;5.50;61.40;;;;;;5041779;28;20506;-72
2021/12/25 12:04:15;;;;;;;3.67;1.15;;;5.20;58.60;;;;;;5058665;28;20041;-72
2021/12/25 12:06:53;;;;;;;4.95;0.88;;;5.50;61.20;;;;;;5058378;28;20071;-72
2021/12/25 12:09:48;;;;;;;2.80;0.90;;;5.60;60.90;;;;;;5041548;28;20116;-71
2021/12/25 12:12:27;;;;;;;3.58;0.80;;;5.80;60.80;;;;;;5041647;28;20090;-71
2021/12/25 12:15:14;;;;;;;4.53;0.77;;;6.20;59.60;;;;;;5058348;28;20051;-71
2021/12/25 12:17:41;;;;;;;1.40;0.50;;;6.80;55.20;;;;;;5058185;28;20032;-71
2021/12/25 12:20:09;;;;;;;3.10;0.80;;;6.80;56.40;;;;;;5058100;28;20048;-71
2021/12/25 12:22:47;;;;;;;2.80;0.63;;;6.90;56.20;;;;;;5057707;28;20091;-71
2021/12/25 12:25:25;;;;;;;2.78;0.95;;;6.90;56.40;;;;;;5041299;28;20123;-71
2021/12/25 12:27:55;;;;;;;0.98;0.57;;;6.90;54.90;;;;;;5041330;28;20079;-71
2021/12/25 12:30:45;;;;;;;3.38;0.80;;;7.30;55.40;;;;;;5057937;28;20040;-72
2021/12/25 12:33:20;;;;;;;2.78;0.80;;;7.90;51.20;;;;;;5057868;28;20127;-71
2021/12/25 12:35:50;;;;;;;2.63;0.63;;;8.20;52.30;;;;;;5057709;28;20562;-71
2021/12/25 12:38:40;;;;;;;2.17;0.70;;;8.50;52.00;;;;;;5057651;28;20040;-73
2021/12/25 12:41:34;;;;;;;1.60;0.65;;;9.50;49.80;;;;;;5057246;28;20040;-72
2021/12/25 12:43:59;;;;;;;3.15;0.73;;;10.50;47.30;;;;;;5057504;28;20051;-71
2021/12/25 12:46:48;;;;;;;2.42;0.70;;;11.20;47.60;;;;;;5057683;28;20036;-71
2021/12/25 12:49:19;;;;;;;2.72;0.60;;;11.60;44.20;;;;;;5041064;28;20037;-74
2021/12/25 12:52:08;;;;;;;5.40;1.23;;;11.60;48.50;;;;;;5057785;28;20166;-73
2021/12/25 12:54:51;;;;;;;2.30;0.75;;;11.40;47.40;;;;;;5057550;28;20539;-71
2021/12/25 12:57:38;;;;;;;4.00;0.80;;;11.00;44.90;;;;;;5057701;28;20036;-73
2021/12/25 13:00:22;;;;;;;4.03;1.50;;;10.60;46.50;;;;;;5057755;28;20063;-73
2021/12/25 13:02:56;;;;;;;3.08;1.25;;;10.30;46.00;;;;;;5057268;28;20519;-73
2021/12/25 13:05:35;;;;;;;2.30;0.70;;;10.20;46.40;;;;;;5057849;28;20123;-73
2021/12/25 13:08:20;;;;;;;2.95;0.70;;;9.80;47.40;;;;;;5057928;28;20036;-73
2021/12/25 13:13:24;;;;;;;2.08;0.85;;;8.90;49.40;;;;;;5057451;28;20056;-73
2021/12/25 13:15:59;;;;;;;2.53;0.98;;;8.90;48.30;;;;;;5057450;28;20044;-73
2021/12/25 13:18:29;;;;;;;2.10;0.82;;;8.70;48.80;;;;;;5057478;28;20103;-73
2021/12/25 13:20:56;;;;;;;3.63;0.80;;;8.30;49.50;;;;;;5057200;28;20045;-73
2021/12/25 13:23:23;;;;;;;3.65;0.70;;;8.30;49.80;;;;;;5057502;28;20413;-73
2021/12/25 13:26:01;;;;;;;3.67;0.77;;;8.50;49.30;;;;;;5057845;28;20040;-73
2021/12/25 13:28:29;;;;;;;3.13;1.27;;;8.70;48.50;;;;;;5058493;28;20515;-74
2021/12/25 13:30:58;;;;;;;3.00;1.40;;;8.80;48.30;;;;;;5057649;28;20052;-74
2021/12/25 13:33:26;;;;;;;5.30;0.95;;;9.40;47.60;;;;;;5057785;28;20517;-74
2021/12/25 13:36:11;;;;;;;5.68;1.35;;;10.20;46.20;;;;;;5057754;28;20046;-74
2021/12/25 13:38:59;;;;;;;4.47;1.50;;;11.10;44.60;;;;;;5056887;28;20040;-73
2021/12/25 13:41:48;;;;;;;3.83;0.80;;;11.80;43.50;;;;;;5057607;28;20036;-73
2021/12/25 13:44:19;;;;;;;1.98;0.70;;;12.40;41.80;;;;;;5057093;28;20040;-73
2021/12/25 13:46:56;;;;;;;4.63;0.80;;;12.60;41.20;;;;;;5057101;28;20047;-73
2021/12/25 13:49:35;;;;;;;2.35;0.95;;;12.30;42.40;;;;;;5057160;28;20071;-74
2021/12/25 13:52:21;;;;;;;2.38;0.65;;;12.00;42.50;;;;;;5056702;28;20040;-74
2021/12/25 13:54:48;;;;;;;2.65;0.65;;;11.40;42.50;;;;;;5040389;28;20123;-74
2021/12/25 13:57:17;;;;;;;3.25;0.80;;;10.60;44.00;;;;;;5057944;28;20094;-74
2021/12/25 13:59:53;;;;;;;2.80;0.77;;;10.10;44.40;;;;;;5058406;28;20401;-74
2021/12/25 14:02:20;;;;;;;3.70;0.88;;;9.70;43.50;;;;;;5057916;28;20036;-73
2021/12/25 14:04:51;;;;;;;3.03;0.70;;;9.40;45.50;;;;;;5040111;28;20123;-72
2021/12/25 14:07:19;;;;;;;2.85;0.77;;;9.50;45.40;;;;;;5040149;28;20043;-73
2021/12/25 14:10:15;;;;;;;3.38;0.68;;;9.40;45.40;;;;;;5056710;28;20051;-73
2021/12/25 14:12:47;;;;;;;0.95;0.52;;;9.10;44.80;;;;;;5040444;28;20107;-74
2021/12/25 14:15:14;;;;;;;1.73;0.70;;;8.20;46.90;;;;;;5057285;28;20037;-74
2021/12/25 14:17:43;;;;;;;3.83;0.85;;;7.50;48.10;;;;;;5057423;28;20059;-74
2021/12/25 14:20:12;;;;;;;3.20;0.70;;;7.40;48.70;;;;;;5057003;28;20044;-74